sensor_id;sensor_type;location;lat;lon;timestamp;P1;durP1;ratioP1;P2;durP2;ratioP2
49041;SDS011;34859;51.608;11.462;2023-08-20T00:02:17;16.40;;;6.07;;
49041;SDS011;34859;51.608;11.462;2023-08-20T00:04:45;7.65;;;6.47;;
49041;SDS011;34859;51.608;11.462;2023-08-20T00:07:13;7.85;;;6.22;;
49041;SDS011;34859;51.608;11.462;2023-08-20T00:09:40;9.07;;;5.90;;
49041;SDS011;34859;51.608;11.462;2023-08-20T00:12:06;7.35;;;6.65;;
49041;SDS011;34859;51.608;11.462;2023-08-20T00:17:21;10.23;;;7.03;;
49041;SDS011;34859;51.608;11.462;2023-08-20T00:19:49;8.80;;;7.28;;
49041;SDS011;34859;51.608;11.462;2023-08-20T00:22:16;8.68;;;6.93;;
49041;SDS011;34859;51.608;11.462;2023-08-20T00:24:43;8.00;;;7.32;;
49041;SDS011;34859;51.608;11.462;2023-08-20T00:27:09;7.50;;;6.75;;
49041;SDS011;34859;51.608;11.462;2023-08-20T00:29:34;11.40;;;7.55;;
49041;SDS011;34859;51.608;11.462;2023-08-20T00:32:00;9.32;;;6.90;;
49041;SDS011;34859;51.608;11.462;2023-08-20T00:34:27;10.15;;;6.75;;
49041;SDS011;34859;51.608;11.462;2023-08-20T00:36:53;9.68;;;7.60;;
49041;SDS011;34859;51.608;11.462;2023-08-20T00:39:19;8.25;;;7.47;;
49041;SDS011;34859;51.608;11.462;2023-08-20T00:41:44;8.63;;;6.63;;
49041;SDS011;34859;51.608;11.462;2023-08-20T00:44:10;8.48;;;7.65;;
49041;SDS011;34859;51.608;11.462;2023-08-20T00:46:38;10.45;;;7.30;;
49041;SDS011;34859;51.608;11.462;2023-08-20T00:49:03;9.55;;;7.35;;
49041;SDS011;34859;51.608;11.462;2023-08-20T00:51:32;8.02;;;7.28;;
49041;SDS011;34859;51.608;11.462;2023-08-20T00:53:58;12.45;;;8.35;;
49041;SDS011;34859;51.608;11.462;2023-08-20T00:56:30;12.60;;;8.80;;
49041;SDS011;34859;51.608;11.462;2023-08-20T00:58:56;10.23;;;8.20;;
49041;SDS011;34859;51.608;11.462;2023-08-20T01:01:23;10.07;;;8.57;;
49041;SDS011;34859;51.608;11.462;2023-08-20T01:03:49;11.65;;;7.97;;
49041;SDS011;34859;51.608;11.462;2023-08-20T01:06:23;11.02;;;9.80;;
49041;SDS011;34859;51.608;11.462;2023-08-20T01:09:08;12.65;;;9.05;;
49041;SDS011;34859;51.608;11.462;2023-08-20T01:11:45;13.13;;;10.60;;
49041;SDS011;34859;51.608;11.462;2023-08-20T01:14:17;15.68;;;11.68;;
49041;SDS011;34859;51.608;11.462;2023-08-20T01:16:43;16.20;;;13.88;;
49041;SDS011;34859;51.608;11.462;2023-08-20T01:19:10;15.05;;;13.65;;
49041;SDS011;34859;51.608;11.462;2023-08-20T01:21:54;17.00;;;14.85;;
49041;SDS011;34859;51.608;11.462;2023-08-20T01:30:43;24.58;;;20.30;;
49041;SDS011;34859;51.608;11.462;2023-08-20T01:33:10;25.40;;;19.48;;
49041;SDS011;34859;51.608;11.462;2023-08-20T01:35:37;25.83;;;22.00;;
49041;SDS011;34859;51.608;11.462;2023-08-20T01:38:04;25.85;;;19.83;;
49041;SDS011;34859;51.608;11.462;2023-08-20T01:40:30;22.92;;;20.75;;
49041;SDS011;34859;51.608;11.462;2023-08-20T01:42:56;25.27;;;22.08;;
49041;SDS011;34859;51.608;11.462;2023-08-20T01:45:23;24.15;;;21.63;;
49041;SDS011;34859;51.608;11.462;2023-08-20T01:47:49;26.17;;;21.70;;
49041;SDS011;34859;51.608;11.462;2023-08-20T01:50:14;30.95;;;23.70;;
49041;SDS011;34859;51.608;11.462;2023-08-20T01:52:40;28.77;;;25.73;;
49041;SDS011;34859;51.608;11.462;2023-08-20T01:55:06;33.83;;;26.27;;
49041;SDS011;34859;51.608;11.462;2023-08-20T01:57:32;32.92;;;26.63;;
49041;SDS011;34859;51.608;11.462;2023-08-20T01:59:59;30.17;;;26.85;;
49041;SDS011;34859;51.608;11.462;2023-08-20T02:02:27;31.35;;;26.33;;
49041;SDS011;34859;51.608;11.462;2023-08-20T02:04:53;30.65;;;26.80;;
49041;SDS011;34859;51.608;11.462;2023-08-20T02:07:19;32.60;;;26.52;;
49041;SDS011;34859;51.608;11.462;2023-08-20T02:09:44;36.85;;;27.60;;
49041;SDS011;34859;51.608;11.462;2023-08-20T02:12:10;31.73;;;26.13;;
49041;SDS011;34859;51.608;11.462;2023-08-20T02:14:36;28.88;;;24.50;;
49041;SDS011;34859;51.608;11.462;2023-08-20T02:17:02;26.80;;;23.92;;
49041;SDS011;34859;51.608;11.462;2023-08-20T02:19:29;30.10;;;26.40;;
49041;SDS011;34859;51.608;11.462;2023-08-20T02:21:54;33.40;;;25.35;;
49041;SDS011;34859;51.608;11.462;2023-08-20T02:24:20;30.35;;;24.55;;
49041;SDS011;34859;51.608;11.462;2023-08-20T02:26:46;31.40;;;25.92;;
49041;SDS011;34859;51.608;11.462;2023-08-20T02:29:12;26.23;;;23.10;;
49041;SDS011;34859;51.608;11.462;2023-08-20T02:31:44;28.80;;;24.15;;
49041;SDS011;34859;51.608;11.462;2023-08-20T02:34:12;25.55;;;21.00;;
49041;SDS011;34859;51.608;11.462;2023-08-20T02:36:38;25.27;;;22.58;;
49041;SDS011;34859;51.608;11.462;2023-08-20T02:39:04;22.40;;;20.00;;
49041;SDS011;34859;51.608;11.462;2023-08-20T02:41:33;21.48;;;19.27;;
49041;SDS011;34859;51.608;11.462;2023-08-20T02:44:01;25.35;;;18.27;;
49041;SDS011;34859;51.608;11.462;2023-08-20T02:46:28;21.25;;;18.92;;
49041;SDS011;34859;51.608;11.462;2023-08-20T02:48:54;20.02;;;17.77;;
49041;SDS011;34859;51.608;11.462;2023-08-20T02:51:19;18.08;;;16.25;;
49041;SDS011;34859;51.608;11.462;2023-08-20T02:54:05;17.73;;;15.98;;
49041;SDS011;34859;51.608;11.462;2023-08-20T02:56:31;17.52;;;15.85;;
49041;SDS011;34859;51.608;11.462;2023-08-20T02:58:57;15.70;;;14.27;;
49041;SDS011;34859;51.608;11.462;2023-08-20T03:01:23;17.30;;;15.50;;
49041;SDS011;34859;51.608;11.462;2023-08-20T03:03:51;17.63;;;15.80;;
49041;SDS011;34859;51.608;11.462;2023-08-20T03:06:17;16.10;;;14.55;;
49041;SDS011;34859;51.608;11.462;2023-08-20T03:08:42;18.33;;;15.73;;
49041;SDS011;34859;51.608;11.462;2023-08-20T03:11:08;21.15;;;16.00;;
49041;SDS011;34859;51.608;11.462;2023-08-20T03:13:34;18.08;;;16.25;;
49041;SDS011;34859;51.608;11.462;2023-08-20T03:16:00;17.98;;;16.00;;
49041;SDS011;34859;51.608;11.462;2023-08-20T03:18:27;19.70;;;17.60;;
49041;SDS011;34859;51.608;11.462;2023-08-20T03:20:56;19.70;;;17.70;;
49041;SDS011;34859;51.608;11.462;2023-08-20T03:23:23;21.17;;;17.13;;
49041;SDS011;34859;51.608;11.462;2023-08-20T03:25:49;20.92;;;18.75;;
49041;SDS011;34859;51.608;11.462;2023-08-20T03:28:15;21.90;;;18.33;;
49041;SDS011;34859;51.608;11.462;2023-08-20T03:30:41;22.58;;;20.23;;
49041;SDS011;34859;51.608;11.462;2023-08-20T03:33:07;22.50;;;20.33;;
49041;SDS011;34859;51.608;11.462;2023-08-20T03:35:32;24.23;;;20.17;;
49041;SDS011;34859;51.608;11.462;2023-08-20T03:37:58;21.52;;;19.40;;
49041;SDS011;34859;51.608;11.462;2023-08-20T03:40:24;20.30;;;18.20;;
49041;SDS011;34859;51.608;11.462;2023-08-20T03:42:50;25.75;;;22.77;;
49041;SDS011;34859;51.608;11.462;2023-08-20T03:45:17;26.38;;;23.73;;
49041;SDS011;34859;51.608;11.462;2023-08-20T03:47:42;23.52;;;21.08;;
49041;SDS011;34859;51.608;11.462;2023-08-20T03:50:09;27.38;;;24.42;;
49041;SDS011;34859;51.608;11.462;2023-08-20T03:52:36;26.85;;;23.90;;
49041;SDS011;34859;51.608;11.462;2023-08-20T03:55:02;29.00;;;25.85;;
49041;SDS011;34859;51.608;11.462;2023-08-20T03:57:28;31.77;;;25.00;;
49041;SDS011;34859;51.608;11.462;2023-08-20T03:59:54;28.75;;;24.48;;
49041;SDS011;34859;51.608;11.462;2023-08-20T04:02:20;28.17;;;25.33;;
49041;SDS011;34859;51.608;11.462;2023-08-20T04:04:46;28.50;;;25.60;;
49041;SDS011;34859;51.608;11.462;2023-08-20T04:07:12;24.30;;;21.80;;
49041;SDS011;34859;51.608;11.462;2023-08-20T04:09:38;24.15;;;21.63;;
49041;SDS011;34859;51.608;11.462;2023-08-20T04:12:05;23.05;;;20.70;;
49041;SDS011;34859;51.608;11.462;2023-08-20T04:14:51;22.70;;;20.33;;
49041;SDS011;34859;51.608;11.462;2023-08-20T04:17:37;24.13;;;20.92;;
49041;SDS011;34859;51.608;11.462;2023-08-20T04:20:23;23.70;;;21.00;;
49041;SDS011;34859;51.608;11.462;2023-08-20T04:23:08;24.58;;;22.13;;
49041;SDS011;34859;51.608;11.462;2023-08-20T04:25:54;24.75;;;22.33;;
49041;SDS011;34859;51.608;11.462;2023-08-20T04:28:22;30.38;;;26.83;;
49041;SDS011;34859;51.608;11.462;2023-08-20T04:30:48;24.40;;;22.05;;
49041;SDS011;34859;51.608;11.462;2023-08-20T04:33:19;23.27;;;20.92;;
49041;SDS011;34859;51.608;11.462;2023-08-20T04:35:45;25.10;;;22.25;;
49041;SDS011;34859;51.608;11.462;2023-08-20T04:38:10;24.63;;;20.88;;
49041;SDS011;34859;51.608;11.462;2023-08-20T04:40:39;21.67;;;19.65;;
49041;SDS011;34859;51.608;11.462;2023-08-20T04:43:06;25.27;;;21.75;;
49041;SDS011;34859;51.608;11.462;2023-08-20T04:45:32;22.98;;;20.63;;
49041;SDS011;34859;51.608;11.462;2023-08-20T04:47:59;23.15;;;20.85;;
49041;SDS011;34859;51.608;11.462;2023-08-20T04:50:24;21.67;;;19.45;;
49041;SDS011;34859;51.608;11.462;2023-08-20T04:52:50;23.75;;;21.27;;
49041;SDS011;34859;51.608;11.462;2023-08-20T04:55:17;19.83;;;18.13;;
49041;SDS011;34859;51.608;11.462;2023-08-20T04:57:43;23.75;;;21.35;;
49041;SDS011;34859;51.608;11.462;2023-08-20T05:00:08;21.13;;;17.95;;
49041;SDS011;34859;51.608;11.462;2023-08-20T05:02:35;24.08;;;21.58;;
49041;SDS011;34859;51.608;11.462;2023-08-20T05:05:01;22.98;;;20.83;;
49041;SDS011;34859;51.608;11.462;2023-08-20T05:07:28;23.25;;;20.73;;
49041;SDS011;34859;51.608;11.462;2023-08-20T05:10:14;25.15;;;21.38;;
49041;SDS011;34859;51.608;11.462;2023-08-20T05:12:39;23.10;;;20.73;;
49041;SDS011;34859;51.608;11.462;2023-08-20T05:15:06;25.77;;;23.35;;
49041;SDS011;34859;51.608;11.462;2023-08-20T05:17:32;26.02;;;23.42;;
49041;SDS011;34859;51.608;11.462;2023-08-20T05:19:58;26.77;;;24.05;;
49041;SDS011;34859;51.608;11.462;2023-08-20T05:22:24;25.15;;;22.60;;
49041;SDS011;34859;51.608;11.462;2023-08-20T05:24:49;24.15;;;21.92;;
49041;SDS011;34859;51.608;11.462;2023-08-20T05:27:16;24.05;;;21.55;;
49041;SDS011;34859;51.608;11.462;2023-08-20T05:29:42;24.75;;;21.48;;
49041;SDS011;34859;51.608;11.462;2023-08-20T05:32:08;24.65;;;22.08;;
49041;SDS011;34859;51.608;11.462;2023-08-20T05:34:34;27.33;;;21.50;;
49041;SDS011;34859;51.608;11.462;2023-08-20T05:37:00;23.45;;;20.92;;
49041;SDS011;34859;51.608;11.462;2023-08-20T05:39:30;25.17;;;20.75;;
49041;SDS011;34859;51.608;11.462;2023-08-20T05:42:01;20.40;;;18.17;;
49041;SDS011;34859;51.608;11.462;2023-08-20T05:44:27;22.80;;;20.08;;
49041;SDS011;34859;51.608;11.462;2023-08-20T05:46:53;22.10;;;19.98;;
49041;SDS011;34859;51.608;11.462;2023-08-20T05:49:19;24.58;;;19.58;;
49041;SDS011;34859;51.608;11.462;2023-08-20T05:51:44;21.13;;;19.02;;
49041;SDS011;34859;51.608;11.462;2023-08-20T05:54:30;22.42;;;20.02;;
49041;SDS011;34859;51.608;11.462;2023-08-20T05:56:57;22.45;;;20.02;;
49041;SDS011;34859;51.608;11.462;2023-08-20T05:59:24;22.33;;;20.00;;
49041;SDS011;34859;51.608;11.462;2023-08-20T06:01:49;25.65;;;19.90;;
49041;SDS011;34859;51.608;11.462;2023-08-20T06:04:16;20.45;;;18.17;;
49041;SDS011;34859;51.608;11.462;2023-08-20T06:06:43;25.52;;;21.52;;
49041;SDS011;34859;51.608;11.462;2023-08-20T06:09:09;25.70;;;22.00;;
49041;SDS011;34859;51.608;11.462;2023-08-20T06:11:35;25.33;;;21.48;;
49041;SDS011;34859;51.608;11.462;2023-08-20T06:14:00;22.95;;;20.58;;
49041;SDS011;34859;51.608;11.462;2023-08-20T06:16:28;22.75;;;20.35;;
49041;SDS011;34859;51.608;11.462;2023-08-20T06:18:54;20.45;;;18.50;;
49041;SDS011;34859;51.608;11.462;2023-08-20T06:21:19;23.67;;;20.80;;
49041;SDS011;34859;51.608;11.462;2023-08-20T06:23:47;22.58;;;20.17;;
49041;SDS011;34859;51.608;11.462;2023-08-20T06:26:13;26.33;;;21.13;;
49041;SDS011;34859;51.608;11.462;2023-08-20T06:28:39;22.70;;;20.50;;
49041;SDS011;34859;51.608;11.462;2023-08-20T06:31:06;23.95;;;20.20;;
49041;SDS011;34859;51.608;11.462;2023-08-20T06:33:32;21.58;;;19.27;;
49041;SDS011;34859;51.608;11.462;2023-08-20T06:35:58;24.13;;;20.60;;
49041;SDS011;34859;51.608;11.462;2023-08-20T06:38:44;18.02;;;16.35;;
49041;SDS011;34859;51.608;11.462;2023-08-20T06:41:09;23.83;;;20.02;;
49041;SDS011;34859;51.608;11.462;2023-08-20T06:43:36;18.20;;;16.45;;
49041;SDS011;34859;51.608;11.462;2023-08-20T06:46:02;23.83;;;19.90;;
49041;SDS011;34859;51.608;11.462;2023-08-20T06:48:30;20.75;;;18.67;;
49041;SDS011;34859;51.608;11.462;2023-08-20T06:50:57;22.10;;;20.05;;
49041;SDS011;34859;51.608;11.462;2023-08-20T06:53:23;26.27;;;21.38;;
49041;SDS011;34859;51.608;11.462;2023-08-20T06:55:49;21.40;;;19.27;;
49041;SDS011;34859;51.608;11.462;2023-08-20T06:58:15;23.70;;;21.20;;
49041;SDS011;34859;51.608;11.462;2023-08-20T07:00:40;24.92;;;22.33;;
49041;SDS011;34859;51.608;11.462;2023-08-20T07:03:08;24.52;;;21.60;;
49041;SDS011;34859;51.608;11.462;2023-08-20T07:05:34;22.85;;;19.23;;
49041;SDS011;34859;51.608;11.462;2023-08-20T07:08:00;22.33;;;20.05;;
49041;SDS011;34859;51.608;11.462;2023-08-20T07:10:28;19.88;;;17.98;;
49041;SDS011;34859;51.608;11.462;2023-08-20T07:12:53;23.08;;;20.60;;
49041;SDS011;34859;51.608;11.462;2023-08-20T07:15:19;22.27;;;20.00;;
49041;SDS011;34859;51.608;11.462;2023-08-20T07:17:45;19.67;;;17.73;;
49041;SDS011;34859;51.608;11.462;2023-08-20T07:20:11;22.77;;;20.38;;
49041;SDS011;34859;51.608;11.462;2023-08-20T07:22:37;20.50;;;18.50;;
49041;SDS011;34859;51.608;11.462;2023-08-20T07:25:02;21.65;;;18.20;;
49041;SDS011;34859;51.608;11.462;2023-08-20T07:27:28;20.48;;;17.70;;
49041;SDS011;34859;51.608;11.462;2023-08-20T07:29:54;18.60;;;16.65;;
49041;SDS011;34859;51.608;11.462;2023-08-20T07:32:20;17.95;;;16.42;;
49041;SDS011;34859;51.608;11.462;2023-08-20T07:34:49;14.10;;;12.88;;
49041;SDS011;34859;51.608;11.462;2023-08-20T07:37:16;14.73;;;12.68;;
49041;SDS011;34859;51.608;11.462;2023-08-20T07:39:42;14.43;;;13.05;;
49041;SDS011;34859;51.608;11.462;2023-08-20T07:42:08;15.77;;;14.23;;
49041;SDS011;34859;51.608;11.462;2023-08-20T07:44:34;15.20;;;13.85;;
49041;SDS011;34859;51.608;11.462;2023-08-20T07:46:59;14.10;;;12.85;;
49041;SDS011;34859;51.608;11.462;2023-08-20T07:49:29;15.65;;;14.02;;
49041;SDS011;34859;51.608;11.462;2023-08-20T07:51:56;16.00;;;14.45;;
49041;SDS011;34859;51.608;11.462;2023-08-20T07:54:22;12.82;;;11.75;;
49041;SDS011;34859;51.608;11.462;2023-08-20T07:56:48;14.52;;;12.88;;
49041;SDS011;34859;51.608;11.462;2023-08-20T07:59:14;13.02;;;11.68;;
49041;SDS011;34859;51.608;11.462;2023-08-20T08:01:40;14.55;;;13.00;;
49041;SDS011;34859;51.608;11.462;2023-08-20T08:04:14;14.07;;;12.77;;
49041;SDS011;34859;51.608;11.462;2023-08-20T08:06:40;13.65;;;12.25;;
49041;SDS011;34859;51.608;11.462;2023-08-20T08:09:20;13.98;;;12.27;;
49041;SDS011;34859;51.608;11.462;2023-08-20T08:11:48;14.48;;;11.68;;
49041;SDS011;34859;51.608;11.462;2023-08-20T08:14:13;13.88;;;12.68;;
49041;SDS011;34859;51.608;11.462;2023-08-20T08:16:39;13.77;;;11.55;;
49041;SDS011;34859;51.608;11.462;2023-08-20T08:19:06;13.85;;;12.32;;
49041;SDS011;34859;51.608;11.462;2023-08-20T08:21:32;12.70;;;11.55;;
49041;SDS011;34859;51.608;11.462;2023-08-20T08:23:58;13.70;;;12.18;;
49041;SDS011;34859;51.608;11.462;2023-08-20T08:26:42;14.10;;;12.57;;
49041;SDS011;34859;51.608;11.462;2023-08-20T08:29:08;10.73;;;9.93;;
49041;SDS011;34859;51.608;11.462;2023-08-20T08:31:34;10.68;;;9.10;;
49041;SDS011;34859;51.608;11.462;2023-08-20T08:34:01;11.38;;;10.32;;
49041;SDS011;34859;51.608;11.462;2023-08-20T08:36:28;10.90;;;9.77;;
49041;SDS011;34859;51.608;11.462;2023-08-20T08:38:54;11.05;;;10.15;;
49041;SDS011;34859;51.608;11.462;2023-08-20T08:41:23;11.45;;;10.52;;
49041;SDS011;34859;51.608;11.462;2023-08-20T08:43:50;10.60;;;9.50;;
49041;SDS011;34859;51.608;11.462;2023-08-20T08:46:35;9.73;;;8.88;;
49041;SDS011;34859;51.608;11.462;2023-08-20T08:49:03;11.80;;;10.80;;
49041;SDS011;34859;51.608;11.462;2023-08-20T08:51:29;10.48;;;9.60;;
49041;SDS011;34859;51.608;11.462;2023-08-20T08:53:56;11.02;;;9.95;;
49041;SDS011;34859;51.608;11.462;2023-08-20T08:56:22;10.30;;;9.27;;
49041;SDS011;34859;51.608;11.462;2023-08-20T08:58:48;10.55;;;9.63;;
49041;SDS011;34859;51.608;11.462;2023-08-20T09:01:14;10.95;;;9.98;;
49041;SDS011;34859;51.608;11.462;2023-08-20T09:03:39;11.23;;;10.07;;
49041;SDS011;34859;51.608;11.462;2023-08-20T09:06:09;10.55;;;9.65;;
49041;SDS011;34859;51.608;11.462;2023-08-20T09:08:37;11.55;;;10.40;;
49041;SDS011;34859;51.608;11.462;2023-08-20T09:11:03;11.88;;;10.68;;
49041;SDS011;34859;51.608;11.462;2023-08-20T09:13:33;11.35;;;10.27;;
49041;SDS011;34859;51.608;11.462;2023-08-20T09:15:59;10.65;;;9.65;;
49041;SDS011;34859;51.608;11.462;2023-08-20T09:18:32;10.57;;;9.65;;
49041;SDS011;34859;51.608;11.462;2023-08-20T09:21:05;9.98;;;9.05;;
49041;SDS011;34859;51.608;11.462;2023-08-20T09:23:34;11.85;;;9.13;;
49041;SDS011;34859;51.608;11.462;2023-08-20T09:26:02;9.82;;;9.05;;
49041;SDS011;34859;51.608;11.462;2023-08-20T09:28:29;9.60;;;8.80;;
49041;SDS011;34859;51.608;11.462;2023-08-20T09:31:06;10.13;;;9.32;;
49041;SDS011;34859;51.608;11.462;2023-08-20T09:33:32;8.75;;;8.15;;
49041;SDS011;34859;51.608;11.462;2023-08-20T09:35:58;9.65;;;8.93;;
49041;SDS011;34859;51.608;11.462;2023-08-20T09:38:24;9.95;;;8.93;;
49041;SDS011;34859;51.608;11.462;2023-08-20T09:40:53;10.48;;;8.63;;
49041;SDS011;34859;51.608;11.462;2023-08-20T09:43:23;10.38;;;9.38;;
49041;SDS011;34859;51.608;11.462;2023-08-20T09:45:54;8.88;;;8.05;;
49041;SDS011;34859;51.608;11.462;2023-08-20T09:48:20;11.82;;;9.45;;
49041;SDS011;34859;51.608;11.462;2023-08-20T09:50:47;8.18;;;7.40;;
49041;SDS011;34859;51.608;11.462;2023-08-20T09:56:29;7.90;;;7.40;;
49041;SDS011;34859;51.608;11.462;2023-08-20T09:59:00;8.05;;;7.53;;
49041;SDS011;34859;51.608;11.462;2023-08-20T10:01:27;7.05;;;6.50;;
49041;SDS011;34859;51.608;11.462;2023-08-20T10:03:59;7.93;;;7.43;;
49041;SDS011;34859;51.608;11.462;2023-08-20T10:06:27;7.82;;;7.22;;
49041;SDS011;34859;51.608;11.462;2023-08-20T10:08:54;7.70;;;7.07;;
49041;SDS011;34859;51.608;11.462;2023-08-20T10:11:20;7.22;;;6.63;;
49041;SDS011;34859;51.608;11.462;2023-08-20T10:13:46;8.35;;;7.75;;
49041;SDS011;34859;51.608;11.462;2023-08-20T10:16:13;8.88;;;7.55;;
49041;SDS011;34859;51.608;11.462;2023-08-20T10:18:39;8.98;;;8.05;;
49041;SDS011;34859;51.608;11.462;2023-08-20T10:21:09;7.05;;;6.45;;
49041;SDS011;34859;51.608;11.462;2023-08-20T10:23:35;7.75;;;7.13;;
49041;SDS011;34859;51.608;11.462;2023-08-20T10:26:07;7.63;;;7.13;;
49041;SDS011;34859;51.608;11.462;2023-08-20T10:28:34;8.48;;;7.82;;
49041;SDS011;34859;51.608;11.462;2023-08-20T10:31:04;7.03;;;6.50;;
49041;SDS011;34859;51.608;11.462;2023-08-20T10:36:14;6.88;;;6.30;;
49041;SDS011;34859;51.608;11.462;2023-08-20T10:38:44;8.00;;;7.40;;
49041;SDS011;34859;51.608;11.462;2023-08-20T10:41:10;6.88;;;6.45;;
49041;SDS011;34859;51.608;11.462;2023-08-20T10:46:08;7.88;;;7.30;;
49041;SDS011;34859;51.608;11.462;2023-08-20T10:48:35;8.13;;;7.43;;
49041;SDS011;34859;51.608;11.462;2023-08-20T10:53:37;6.67;;;6.27;;
49041;SDS011;34859;51.608;11.462;2023-08-20T10:56:16;7.30;;;6.90;;
49041;SDS011;34859;51.608;11.462;2023-08-20T10:58:46;6.82;;;6.50;;
49041;SDS011;34859;51.608;11.462;2023-08-20T11:01:22;6.78;;;6.32;;
49041;SDS011;34859;51.608;11.462;2023-08-20T11:03:49;7.22;;;6.80;;
49041;SDS011;34859;51.608;11.462;2023-08-20T11:06:17;6.97;;;6.47;;
49041;SDS011;34859;51.608;11.462;2023-08-20T11:08:43;7.07;;;6.65;;
49041;SDS011;34859;51.608;11.462;2023-08-20T11:11:10;7.85;;;7.10;;
49041;SDS011;34859;51.608;11.462;2023-08-20T11:13:40;7.75;;;7.10;;
49041;SDS011;34859;51.608;11.462;2023-08-20T11:16:07;7.90;;;7.30;;
49041;SDS011;34859;51.608;11.462;2023-08-20T11:18:34;9.00;;;7.10;;
49041;SDS011;34859;51.608;11.462;2023-08-20T11:21:00;11.73;;;8.60;;
49041;SDS011;34859;51.608;11.462;2023-08-20T11:23:29;8.52;;;7.80;;
49041;SDS011;34859;51.608;11.462;2023-08-20T11:25:57;8.27;;;7.30;;
49041;SDS011;34859;51.608;11.462;2023-08-20T11:28:24;7.22;;;6.82;;
49041;SDS011;34859;51.608;11.462;2023-08-20T11:30:51;8.13;;;7.55;;
49041;SDS011;34859;51.608;11.462;2023-08-20T11:33:18;9.68;;;7.75;;
49041;SDS011;34859;51.608;11.462;2023-08-20T11:35:43;9.02;;;7.65;;
49041;SDS011;34859;51.608;11.462;2023-08-20T11:38:29;8.00;;;7.32;;
49041;SDS011;34859;51.608;11.462;2023-08-20T11:41:15;9.05;;;8.23;;
49041;SDS011;34859;51.608;11.462;2023-08-20T11:44:01;9.20;;;8.48;;
49041;SDS011;34859;51.608;11.462;2023-08-20T11:46:48;8.88;;;8.27;;
49041;SDS011;34859;51.608;11.462;2023-08-20T11:49:15;8.85;;;8.15;;
49041;SDS011;34859;51.608;11.462;2023-08-20T11:51:46;8.77;;;7.95;;
49041;SDS011;34859;51.608;11.462;2023-08-20T11:54:13;8.35;;;7.85;;
49041;SDS011;34859;51.608;11.462;2023-08-20T11:56:44;8.13;;;7.53;;
49041;SDS011;34859;51.608;11.462;2023-08-20T11:59:11;8.63;;;7.90;;
49041;SDS011;34859;51.608;11.462;2023-08-20T12:01:38;7.93;;;7.22;;
49041;SDS011;34859;51.608;11.462;2023-08-20T12:04:04;8.40;;;7.65;;
49041;SDS011;34859;51.608;11.462;2023-08-20T12:06:31;8.38;;;7.47;;
49041;SDS011;34859;51.608;11.462;2023-08-20T12:08:58;8.50;;;8.00;;
49041;SDS011;34859;51.608;11.462;2023-08-20T12:11:25;10.13;;;8.32;;
49041;SDS011;34859;51.608;11.462;2023-08-20T12:13:54;7.72;;;7.22;;
49041;SDS011;34859;51.608;11.462;2023-08-20T12:16:21;8.57;;;7.88;;
49041;SDS011;34859;51.608;11.462;2023-08-20T12:18:48;7.50;;;6.90;;
49041;SDS011;34859;51.608;11.462;2023-08-20T12:21:14;8.95;;;8.10;;
49041;SDS011;34859;51.608;11.462;2023-08-20T12:23:40;8.32;;;7.72;;
49041;SDS011;34859;51.608;11.462;2023-08-20T12:26:07;13.95;;;7.88;;
49041;SDS011;34859;51.608;11.462;2023-08-20T12:28:36;8.57;;;7.97;;
49041;SDS011;34859;51.608;11.462;2023-08-20T12:31:02;8.30;;;7.68;;
49041;SDS011;34859;51.608;11.462;2023-08-20T12:33:28;10.02;;;9.02;;
49041;SDS011;34859;51.608;11.462;2023-08-20T12:35:54;9.40;;;8.70;;
49041;SDS011;34859;51.608;11.462;2023-08-20T12:38:20;9.23;;;8.27;;
49041;SDS011;34859;51.608;11.462;2023-08-20T12:40:47;9.52;;;7.82;;
49041;SDS011;34859;51.608;11.462;2023-08-20T12:43:12;10.43;;;8.07;;
49041;SDS011;34859;51.608;11.462;2023-08-20T12:45:40;8.45;;;7.85;;
49041;SDS011;34859;51.608;11.462;2023-08-20T12:48:06;8.75;;;7.90;;
49041;SDS011;34859;51.608;11.462;2023-08-20T12:50:32;8.82;;;7.93;;
49041;SDS011;34859;51.608;11.462;2023-08-20T12:52:58;8.27;;;7.55;;
49041;SDS011;34859;51.608;11.462;2023-08-20T12:55:24;7.70;;;7.10;;
49041;SDS011;34859;51.608;11.462;2023-08-20T12:57:54;8.85;;;8.07;;
49041;SDS011;34859;51.608;11.462;2023-08-20T13:00:22;8.73;;;8.02;;
49041;SDS011;34859;51.608;11.462;2023-08-20T13:02:50;7.53;;;6.85;;
49041;SDS011;34859;51.608;11.462;2023-08-20T13:05:17;8.65;;;7.80;;
49041;SDS011;34859;51.608;11.462;2023-08-20T13:07:43;11.55;;;8.07;;
49041;SDS011;34859;51.608;11.462;2023-08-20T13:10:09;9.35;;;8.48;;
49041;SDS011;34859;51.608;11.462;2023-08-20T13:12:41;8.60;;;8.05;;
49041;SDS011;34859;51.608;11.462;2023-08-20T13:15:10;9.02;;;8.32;;
49041;SDS011;34859;51.608;11.462;2023-08-20T13:17:36;8.63;;;7.97;;
49041;SDS011;34859;51.608;11.462;2023-08-20T13:20:03;8.63;;;8.02;;
49041;SDS011;34859;51.608;11.462;2023-08-20T13:22:30;8.52;;;7.85;;
49041;SDS011;34859;51.608;11.462;2023-08-20T13:24:56;9.63;;;8.85;;
49041;SDS011;34859;51.608;11.462;2023-08-20T13:27:22;9.85;;;8.57;;
49041;SDS011;34859;51.608;11.462;2023-08-20T13:29:49;10.50;;;9.27;;
49041;SDS011;34859;51.608;11.462;2023-08-20T13:32:15;9.23;;;8.27;;
49041;SDS011;34859;51.608;11.462;2023-08-20T13:34:40;8.95;;;8.27;;
49041;SDS011;34859;51.608;11.462;2023-08-20T13:37:06;9.93;;;9.25;;
49041;SDS011;34859;51.608;11.462;2023-08-20T13:39:32;9.48;;;8.57;;
49041;SDS011;34859;51.608;11.462;2023-08-20T13:41:58;9.95;;;9.05;;
49041;SDS011;34859;51.608;11.462;2023-08-20T13:44:24;10.50;;;9.50;;
49041;SDS011;34859;51.608;11.462;2023-08-20T13:46:49;10.38;;;9.48;;
49041;SDS011;34859;51.608;11.462;2023-08-20T13:49:16;9.32;;;8.48;;
49041;SDS011;34859;51.608;11.462;2023-08-20T13:51:42;8.80;;;8.20;;
49041;SDS011;34859;51.608;11.462;2023-08-20T13:54:08;8.18;;;7.75;;
49041;SDS011;34859;51.608;11.462;2023-08-20T13:56:33;9.30;;;8.52;;
49041;SDS011;34859;51.608;11.462;2023-08-20T13:58:59;8.63;;;8.02;;
49041;SDS011;34859;51.608;11.462;2023-08-20T14:01:27;8.88;;;8.32;;
49041;SDS011;34859;51.608;11.462;2023-08-20T14:03:53;9.45;;;8.75;;
49041;SDS011;34859;51.608;11.462;2023-08-20T14:06:19;9.85;;;8.88;;
49041;SDS011;34859;51.608;11.462;2023-08-20T14:08:46;8.52;;;7.93;;
49041;SDS011;34859;51.608;11.462;2023-08-20T14:11:13;10.00;;;8.55;;
49041;SDS011;34859;51.608;11.462;2023-08-20T14:13:39;9.55;;;8.75;;
49041;SDS011;34859;51.608;11.462;2023-08-20T14:16:05;10.05;;;9.20;;
49041;SDS011;34859;51.608;11.462;2023-08-20T14:18:30;9.88;;;9.02;;
49041;SDS011;34859;51.608;11.462;2023-08-20T14:20:57;10.65;;;9.85;;
49041;SDS011;34859;51.608;11.462;2023-08-20T14:23:23;9.45;;;8.75;;
49041;SDS011;34859;51.608;11.462;2023-08-20T14:25:49;8.80;;;8.10;;
49041;SDS011;34859;51.608;11.462;2023-08-20T14:28:33;9.35;;;8.55;;
49041;SDS011;34859;51.608;11.462;2023-08-20T14:31:18;8.63;;;7.97;;
49041;SDS011;34859;51.608;11.462;2023-08-20T14:33:44;8.65;;;7.95;;
49041;SDS011;34859;51.608;11.462;2023-08-20T14:36:10;8.55;;;8.05;;
49041;SDS011;34859;51.608;11.462;2023-08-20T14:38:36;8.98;;;8.13;;
49041;SDS011;34859;51.608;11.462;2023-08-20T14:41:03;8.90;;;8.30;;
49041;SDS011;34859;51.608;11.462;2023-08-20T14:43:29;9.73;;;9.10;;